Wrenshall, Minnesota
Current Conditions -  °F | °C
As of 10:16 PM on Tuesday 27 Jan 2015 (Local Time) from KCOQ Reporting Station
Overcast Overcast  
Wind Chill: 21°   Ceiling: 1500
Heat Index: 27°   Visibility: 10mi
Dew Point: 21°   Wind: 5mph
Humidity: 80%   Direction: 140°SE
Pressure: 30.08"   Gusts: NA
Location:  46.62°N, 92.38°W
Report Text: KCOQ 280416Z AUTO 14004KT 10SM OVC015 M03/M06 A3008 RMK AO2
Loading
Personal Weather Stations






























Interactive Weather Map New forecast layout! Learn more

10-Day Weather Forecast

Advertisements
Track Severe Weather on mobile